首页
METAR-TAF:

METAR-TAF

机场 :

Iowa City Municipal Airport

艾奥瓦城, 艾奥瓦州, 美国

纬度: 41-37-58N, 经度: 091-32-35W, 海拔: 203米

当前天气观测

该预报发布于49分钟前的20:52 UTC
风速14节,风向西转西北,有时为18节阵风
温度 -3°C
湿度 63%
气压 1013 hPa
能見度: 16.1公里
多云层高于2000英尺
多云层高于3900英尺

METAR: KIOW 142052Z AUTO 29014G18KT 10SM BKN020 BKN039 M03/M09 A2990 RMK AO2 SLP134 T10281089 53004

时间: 15:41 (21:41 UTC)


TAF: 丢失

超过4000个机场的气象观测和天气预报(METAR&TAF报告)。

可查询的气象台以黄色和红色小点在地图上表示。

将鼠标移到小点上方,可查看气象台名称。

然后点击查看天气观测和预报。

如需切换地图:点击带黑十字的绿色按钮放大地图;点击带横线的绿色按钮缩小地图;或者点击绿色箭头查看邻近地区的地图。


METAR-TAF: